Terminal Aerodrome Forecast
Issued by NWS

Home | Current Version | Previous Version | Text Only | Print | Product List | Glossary On
Versions: 1 2 3 4 5 6 7 8 9 10 11 12 13
000
FTUS43 KGRB 251135
TAFCWA
TAF
KCWA 251135Z 2512/2612 10004KT P6SM SCT100 BKN200
     FM251500 11010G17KT P6SM SCT025 BKN200
     FM252100 12009KT 6SM -SHRA BKN025 OVC080
      TEMPO 2522/2602 2SM +TSRA BKN008 OVC015CB
     FM260400 15007KT 2SM BR BKN005 BKN010=

USA.gov is the U.S. government's official web portal to all federal, state and local government web resources and services.